createdAt,value
2017-12-23T00:02:22.194Z,4.00
2017-12-23T00:04:49.778Z,4.00
2017-12-23T00:07:17.380Z,4.00
2017-12-23T00:09:45.001Z,4.10
2017-12-23T00:12:12.575Z,4.10
2017-12-23T00:14:40.961Z,4.10
2017-12-23T00:17:08.521Z,4.10
2017-12-23T00:19:36.136Z,4.10
2017-12-23T00:22:04.707Z,4.00
2017-12-23T00:24:32.302Z,4.00
2017-12-23T00:26:59.912Z,4.00
2017-12-23T00:29:28.259Z,4.00
2017-12-23T00:31:55.876Z,4.00
2017-12-23T00:34:31.311Z,4.00
2017-12-23T00:36:58.939Z,4.00
2017-12-23T00:39:26.528Z,4.10
2017-12-23T00:41:54.115Z,4.10
2017-12-23T00:44:21.723Z,4.10
2017-12-23T00:46:50.076Z,4.20
2017-12-23T00:49:17.725Z,4.20
2017-12-23T00:51:45.313Z,4.20
2017-12-23T00:54:12.902Z,4.20
2017-12-23T00:56:40.517Z,4.10
2017-12-23T00:59:08.098Z,4.20
2017-12-23T01:01:35.728Z,4.20
2017-12-23T01:04:04.726Z,4.20
2017-12-23T01:06:32.305Z,4.10
2017-12-23T01:08:59.930Z,4.20
2017-12-23T01:11:28.281Z,4.30
2017-12-23T01:13:55.884Z,4.30
2017-12-23T01:16:23.468Z,4.30
2017-12-23T01:18:51.070Z,4.30
2017-12-23T01:21:18.689Z,4.30
2017-12-23T01:23:47.030Z,4.40
2017-12-23T01:26:14.638Z,4.30
2017-12-23T01:28:42.227Z,4.40
2017-12-23T01:31:09.843Z,4.40
2017-12-23T01:33:38.192Z,4.50
2017-12-23T01:36:05.779Z,4.50
2017-12-23T01:38:34.467Z,4.40
2017-12-23T01:41:02.056Z,4.50
2017-12-23T01:43:29.668Z,4.50
2017-12-23T01:45:57.268Z,4.50
2017-12-23T01:48:34.355Z,4.50
2017-12-23T01:51:01.936Z,4.40
2017-12-23T01:53:29.546Z,4.40
2017-12-23T01:55:57.160Z,4.40
2017-12-23T01:58:24.823Z,4.40
2017-12-23T02:00:52.434Z,4.50
2017-12-23T02:03:20.029Z,4.50
2017-12-23T02:05:48.408Z,4.50
2017-12-23T02:08:15.974Z,4.50
2017-12-23T02:10:43.565Z,4.40
2017-12-23T02:13:11.188Z,4.40
2017-12-23T02:15:39.547Z,4.40
2017-12-23T02:18:07.176Z,4.40
2017-12-23T02:20:35.533Z,4.30
2017-12-23T02:23:04.304Z,4.30
2017-12-23T02:25:32.659Z,4.30
2017-12-23T02:28:00.283Z,4.30
2017-12-23T02:30:27.894Z,4.40
2017-12-23T02:32:56.252Z,4.30
2017-12-23T02:35:23.871Z,4.30
2017-12-23T02:37:51.466Z,4.30
2017-12-23T02:40:19.839Z,4.30
2017-12-23T02:42:47.434Z,4.30
2017-12-23T02:45:15.099Z,4.40
2017-12-23T02:47:42.688Z,4.30
2017-12-23T02:50:10.260Z,4.20
2017-12-23T02:52:37.870Z,4.20
2017-12-23T02:55:05.468Z,4.30
2017-12-23T02:57:33.083Z,4.30
2017-12-23T03:00:00.664Z,4.30
2017-12-23T03:02:28.286Z,4.30
2017-12-23T03:04:55.884Z,4.20
2017-12-23T03:07:23.483Z,4.20
2017-12-23T03:09:51.091Z,4.30
2017-12-23T03:12:19.444Z,4.20
2017-12-23T03:14:47.062Z,4.10
2017-12-23T03:17:14.646Z,4.10
2017-12-23T03:19:42.259Z,4.10
2017-12-23T03:22:09.850Z,4.10
2017-12-23T03:24:37.436Z,4.10
2017-12-23T03:27:05.558Z,4.10
2017-12-23T03:29:34.789Z,4.10
2017-12-23T03:32:02.422Z,4.00
2017-12-23T03:34:30.769Z,4.00
2017-12-23T03:36:58.396Z,4.00
2017-12-23T03:39:25.992Z,3.90
2017-12-23T03:41:54.353Z,3.90
2017-12-23T03:44:21.971Z,3.90
2017-12-23T03:46:49.563Z,3.90
2017-12-23T03:49:17.946Z,3.80
2017-12-23T03:51:45.537Z,3.80
2017-12-23T03:54:13.933Z,3.70
2017-12-23T03:56:41.514Z,3.70
2017-12-23T03:59:09.858Z,3.80
2017-12-23T04:01:37.465Z,3.80
2017-12-23T04:04:05.050Z,3.80
2017-12-23T04:06:34.265Z,3.80
2017-12-23T04:09:01.859Z,3.80
2017-12-23T04:11:29.480Z,3.80
2017-12-23T04:13:57.077Z,3.90
2017-12-23T04:16:24.687Z,3.90
2017-12-23T04:18:53.067Z,3.90
2017-12-23T04:21:20.659Z,3.90
2017-12-23T04:23:49.051Z,4.00
2017-12-23T04:26:16.647Z,4.00
2017-12-23T04:28:44.998Z,4.00
2017-12-23T04:31:12.607Z,4.00
2017-12-23T04:33:40.194Z,4.10
2017-12-23T04:36:07.802Z,4.10
2017-12-23T04:38:36.144Z,4.10
2017-12-23T04:41:04.724Z,4.10
2017-12-23T04:43:33.109Z,4.10
2017-12-23T04:46:00.689Z,4.00
2017-12-23T04:48:28.308Z,4.10
2017-12-23T04:50:55.882Z,4.20
2017-12-23T04:53:24.269Z,4.10
2017-12-23T04:55:51.856Z,4.10
2017-12-23T04:58:19.476Z,4.10
2017-12-23T05:00:47.064Z,4.10
2017-12-23T05:03:14.652Z,4.00
2017-12-23T05:05:42.263Z,4.00
2017-12-23T05:08:09.848Z,4.00
2017-12-23T05:10:37.473Z,4.00
2017-12-23T05:13:05.839Z,4.00
2017-12-23T05:15:34.105Z,3.90
2017-12-23T05:18:01.694Z,4.00
2017-12-23T05:20:29.278Z,4.00
2017-12-23T05:22:56.887Z,4.00
2017-12-23T05:25:24.474Z,4.00
2017-12-23T05:27:52.081Z,4.00
2017-12-23T05:30:19.681Z,4.10
2017-12-23T05:32:47.335Z,4.10
2017-12-23T05:35:14.926Z,4.20
2017-12-23T05:37:43.283Z,4.30
2017-12-23T05:40:11.668Z,4.30
2017-12-23T05:42:39.280Z,4.20
2017-12-23T05:45:06.894Z,4.40
2017-12-23T05:47:35.976Z,4.30
2017-12-23T05:50:09.366Z,4.30
2017-12-23T05:52:36.951Z,4.30
2017-12-23T05:55:05.321Z,4.40
2017-12-23T05:57:32.959Z,4.50
2017-12-23T06:00:00.550Z,4.50
2017-12-23T06:02:28.164Z,4.50
2017-12-23T06:04:56.515Z,4.60
2017-12-23T06:07:24.138Z,4.60
2017-12-23T06:09:51.730Z,4.70
2017-12-23T06:12:20.086Z,4.80
2017-12-23T06:14:47.730Z,4.80
2017-12-23T06:17:16.080Z,4.90
2017-12-23T06:19:43.693Z,4.90
2017-12-23T06:22:11.284Z,4.90
2017-12-23T06:24:38.911Z,5.00
2017-12-23T06:27:06.493Z,5.00
2017-12-23T06:29:34.078Z,5.20
2017-12-23T06:32:01.698Z,5.20
2017-12-23T06:34:29.279Z,5.20
2017-12-23T06:36:56.902Z,5.30
2017-12-23T06:39:25.246Z,5.30
2017-12-23T06:41:52.854Z,5.30
2017-12-23T06:44:20.450Z,5.30
2017-12-23T06:46:48.038Z,5.40
2017-12-23T06:49:15.647Z,5.40
2017-12-23T06:51:43.272Z,5.50
2017-12-23T06:54:10.925Z,5.60
2017-12-23T06:56:38.524Z,5.50
2017-12-23T06:59:06.150Z,5.60
2017-12-23T07:01:34.774Z,5.60
2017-12-23T07:04:02.392Z,5.60
2017-12-23T07:06:30.036Z,5.60
2017-12-23T07:08:57.624Z,5.70
2017-12-23T07:11:25.233Z,5.70
2017-12-23T07:13:53.583Z,5.80
2017-12-23T07:16:21.220Z,5.70
2017-12-23T07:18:48.807Z,5.80
2017-12-23T07:21:16.398Z,5.80
2017-12-23T07:23:44.777Z,5.80
2017-12-23T07:26:12.375Z,5.80
2017-12-23T07:28:39.982Z,5.80
2017-12-23T07:31:08.346Z,6.00
2017-12-23T07:33:35.986Z,6.00
2017-12-23T07:36:04.255Z,6.00
2017-12-23T07:38:31.846Z,6.00
2017-12-23T07:41:00.227Z,6.00
2017-12-23T07:43:27.823Z,5.90
2017-12-23T07:45:55.737Z,5.90
2017-12-23T07:48:28.414Z,5.90
2017-12-23T07:50:57.879Z,6.00
2017-12-23T07:53:25.544Z,5.90
2017-12-23T07:55:53.135Z,6.00
2017-12-23T07:58:21.528Z,5.90
2017-12-23T08:00:49.109Z,5.90
2017-12-23T08:03:16.728Z,5.90
2017-12-23T08:05:44.312Z,5.80
2017-12-23T08:08:11.968Z,5.90
2017-12-23T08:10:39.560Z,5.90
2017-12-23T08:13:07.205Z,5.90
2017-12-23T08:15:35.539Z,5.90
2017-12-23T08:18:04.786Z,6.00
2017-12-23T08:20:34.223Z,6.00
2017-12-23T08:23:02.587Z,6.00
2017-12-23T08:25:30.291Z,6.00
2017-12-23T08:27:57.970Z,6.00
2017-12-23T08:30:25.954Z,6.00
2017-12-23T08:32:53.966Z,6.10
2017-12-23T08:35:22.460Z,6.10
2017-12-23T08:37:50.839Z,6.20
2017-12-23T08:40:19.200Z,6.30
2017-12-23T08:42:47.022Z,6.20
2017-12-23T08:45:14.722Z,6.30
2017-12-23T08:47:42.314Z,6.30
2017-12-23T08:50:10.564Z,6.40
2017-12-23T08:52:38.180Z,6.40
2017-12-23T08:55:06.550Z,6.40
2017-12-23T08:57:35.951Z,6.40
2017-12-23T09:00:04.324Z,6.40
2017-12-23T09:02:33.512Z,6.50
2017-12-23T09:05:01.103Z,6.50
2017-12-23T09:07:28.719Z,6.50
2017-12-23T09:09:56.300Z,6.60
2017-12-23T09:12:23.913Z,6.60
2017-12-23T09:14:52.267Z,6.60
2017-12-23T09:17:20.744Z,6.70
2017-12-23T09:19:48.344Z,6.70
2017-12-23T09:22:16.700Z,6.70
2017-12-23T09:24:44.322Z,6.70
2017-12-23T09:27:11.902Z,6.70
2017-12-23T09:29:39.516Z,6.80
2017-12-23T09:32:07.905Z,6.80
2017-12-23T09:34:35.528Z,6.80
2017-12-23T09:37:04.676Z,6.80
2017-12-23T09:39:32.522Z,6.90
2017-12-23T09:42:00.124Z,6.90
2017-12-23T09:44:27.706Z,6.90
2017-12-23T09:46:55.417Z,7.00
2017-12-23T09:49:23.057Z,7.00
2017-12-23T09:51:50.689Z,7.00
2017-12-23T09:54:18.280Z,7.00
2017-12-23T09:56:45.940Z,7.10
2017-12-23T09:59:13.551Z,7.10
2017-12-23T10:01:41.134Z,7.10
2017-12-23T10:04:09.558Z,7.30
2017-12-23T10:06:37.190Z,7.30
2017-12-23T10:09:05.377Z,7.30
2017-12-23T10:11:33.386Z,7.30
2017-12-23T10:14:00.980Z,7.40
2017-12-23T10:16:28.605Z,7.40
2017-12-23T10:18:56.661Z,7.40
2017-12-23T10:21:24.917Z,7.40
2017-12-23T10:23:52.560Z,7.40
2017-12-23T10:26:20.256Z,7.40
2017-12-23T10:28:48.639Z,7.40
2017-12-23T10:31:16.396Z,7.50
2017-12-23T10:33:44.001Z,7.50
2017-12-23T10:36:11.608Z,7.50
2017-12-23T10:38:39.214Z,7.50
2017-12-23T10:41:06.848Z,7.60
2017-12-23T10:43:35.237Z,7.60
2017-12-23T10:46:03.431Z,7.60
2017-12-23T10:48:31.013Z,7.60
2017-12-23T10:50:59.588Z,7.60
2017-12-23T10:53:27.180Z,7.60
2017-12-23T10:55:55.102Z,7.60
2017-12-23T10:58:22.684Z,7.60
2017-12-23T11:00:56.089Z,7.60
2017-12-23T11:03:23.709Z,7.70
2017-12-23T11:05:51.587Z,7.70
2017-12-23T11:08:19.968Z,7.80
2017-12-23T11:10:47.752Z,7.70
2017-12-23T11:13:15.371Z,7.80
2017-12-23T11:15:42.956Z,7.80
2017-12-23T11:18:10.577Z,7.90
2017-12-23T11:20:38.177Z,7.90
2017-12-23T11:23:05.751Z,7.90
2017-12-23T11:25:34.058Z,7.90
2017-12-23T11:28:02.407Z,8.00
2017-12-23T11:30:30.028Z,8.00
2017-12-23T11:32:57.619Z,8.00
2017-12-23T11:35:25.202Z,8.00
2017-12-23T11:37:52.823Z,8.10
2017-12-23T11:40:20.405Z,8.10
2017-12-23T11:42:48.019Z,8.20
2017-12-23T11:45:16.585Z,8.20
2017-12-23T11:47:44.191Z,8.20
2017-12-23T11:50:11.796Z,8.20
2017-12-23T11:52:39.393Z,8.30
2017-12-23T11:55:07.012Z,8.30
2017-12-23T11:57:35.261Z,8.30
2017-12-23T12:00:04.631Z,8.30
2017-12-23T12:02:32.231Z,8.30
2017-12-23T12:04:59.851Z,8.50
2017-12-23T12:07:27.925Z,8.50
2017-12-23T12:09:55.582Z,8.50
2017-12-23T12:12:23.182Z,8.50
2017-12-23T12:14:50.810Z,8.50
2017-12-23T12:17:18.423Z,8.50
2017-12-23T12:19:46.147Z,8.50
2017-12-23T12:22:15.119Z,8.50
2017-12-23T12:24:43.731Z,8.50
2017-12-23T12:27:12.078Z,8.50
2017-12-23T12:29:40.462Z,8.60
2017-12-23T12:32:08.045Z,8.50
2017-12-23T12:34:35.663Z,8.50
2017-12-23T12:37:03.886Z,8.60
2017-12-23T12:39:35.434Z,8.50
2017-12-23T12:42:03.020Z,8.50
2017-12-23T12:44:31.611Z,8.50
2017-12-23T12:46:59.989Z,8.60
2017-12-23T12:49:27.630Z,8.50
2017-12-23T12:51:56.013Z,8.70
2017-12-23T12:54:25.392Z,8.70
2017-12-23T12:56:53.013Z,8.60
2017-12-23T12:59:21.512Z,8.70
2017-12-23T13:01:49.118Z,8.70
2017-12-23T13:04:16.709Z,8.70
2017-12-23T13:06:44.352Z,8.70
2017-12-23T13:09:11.989Z,8.70
2017-12-23T13:11:39.566Z,8.70
2017-12-23T13:14:07.260Z,8.70
2017-12-23T13:16:35.729Z,8.70
2017-12-23T13:19:04.475Z,8.70
2017-12-23T13:21:32.053Z,8.70
2017-12-23T13:24:00.431Z,8.80
2017-12-23T13:26:28.018Z,8.70
2017-12-23T13:28:56.403Z,8.80
2017-12-23T13:31:24.774Z,8.80
2017-12-23T13:33:52.370Z,8.80
2017-12-23T13:36:19.969Z,8.80
2017-12-23T13:38:48.314Z,8.80
2017-12-23T13:41:16.704Z,8.80
2017-12-23T13:43:44.355Z,8.80
2017-12-23T13:46:12.706Z,8.80
2017-12-23T13:48:42.186Z,8.80
2017-12-23T13:51:09.787Z,8.70
2017-12-23T13:53:38.174Z,8.70
2017-12-23T13:56:05.760Z,8.70
2017-12-23T13:58:34.170Z,8.70
2017-12-23T14:01:01.763Z,8.80
2017-12-23T14:03:29.385Z,8.70
2017-12-23T14:05:56.995Z,8.70
2017-12-23T14:08:24.565Z,8.70
2017-12-23T14:10:52.219Z,8.70
2017-12-23T14:13:19.795Z,8.70
2017-12-23T14:15:47.408Z,8.70
2017-12-23T14:18:15.007Z,8.70
2017-12-23T14:20:42.580Z,8.70
2017-12-23T14:23:10.207Z,8.70
2017-12-23T14:25:37.786Z,8.70
2017-12-23T14:28:06.162Z,8.60
2017-12-23T14:30:36.630Z,8.60
2017-12-23T14:33:05.711Z,8.60
2017-12-23T14:35:34.322Z,8.60
2017-12-23T14:38:01.944Z,8.60
2017-12-23T14:40:29.542Z,8.60
2017-12-23T14:42:58.886Z,8.70
2017-12-23T14:45:27.283Z,8.60
2017-12-23T14:47:56.144Z,8.60
2017-12-23T14:50:23.818Z,8.70
2017-12-23T14:52:51.834Z,8.60
2017-12-23T14:57:55.985Z,8.70
2017-12-23T15:00:24.321Z,8.70
2017-12-23T15:02:51.944Z,8.70
2017-12-23T15:05:19.526Z,8.70
2017-12-23T15:07:47.861Z,8.70
2017-12-23T15:10:15.501Z,8.60
2017-12-23T15:12:43.091Z,8.70
2017-12-23T15:15:10.706Z,8.70
2017-12-23T15:17:38.310Z,8.70
2017-12-23T15:20:06.684Z,8.70
2017-12-23T15:22:35.466Z,8.70
2017-12-23T15:25:04.486Z,8.70
2017-12-23T15:27:32.119Z,8.70
2017-12-23T15:29:59.711Z,8.80
2017-12-23T15:32:27.395Z,8.80
2017-12-23T15:34:54.977Z,8.80
2017-12-23T15:37:23.648Z,8.70
2017-12-23T15:39:51.250Z,8.80
2017-12-23T15:42:18.847Z,8.80
2017-12-23T15:44:47.238Z,8.90
2017-12-23T15:47:14.887Z,8.90
2017-12-23T15:49:43.260Z,8.90
2017-12-23T15:52:10.846Z,8.90
2017-12-23T15:54:38.471Z,8.90
2017-12-23T15:57:07.462Z,8.90
2017-12-23T15:59:35.394Z,8.90
2017-12-23T16:02:03.432Z,8.90
2017-12-23T16:04:31.023Z,8.90
2017-12-23T16:06:58.638Z,8.90
2017-12-23T16:09:26.230Z,8.90
2017-12-23T16:11:53.840Z,9.00
2017-12-23T16:14:21.438Z,9.00
2017-12-23T16:16:49.034Z,8.90
2017-12-23T16:19:16.654Z,9.00
2017-12-23T16:21:44.238Z,8.90
2017-12-23T16:24:11.864Z,9.00
2017-12-23T16:26:39.462Z,8.90
2017-12-23T16:29:07.059Z,8.90
2017-12-23T16:31:35.511Z,9.00
2017-12-23T16:34:03.826Z,9.00
2017-12-23T16:36:32.191Z,9.00
2017-12-23T16:38:59.788Z,9.00
2017-12-23T16:41:27.385Z,9.00
2017-12-23T16:43:55.761Z,9.00
2017-12-23T16:46:23.352Z,8.90
2017-12-23T16:48:50.969Z,9.00
2017-12-23T16:51:18.550Z,9.00
2017-12-23T16:53:46.144Z,9.00
2017-12-23T16:56:14.525Z,9.00
2017-12-23T16:58:42.123Z,9.00
2017-12-23T17:01:09.729Z,9.00
2017-12-23T17:03:37.331Z,9.00
2017-12-23T17:06:05.922Z,9.00
2017-12-23T17:08:34.180Z,9.00
2017-12-23T17:11:02.550Z,9.00
2017-12-23T17:13:30.171Z,9.00
2017-12-23T17:15:57.775Z,9.00
2017-12-23T17:18:26.150Z,8.90
2017-12-23T17:20:53.743Z,8.90
2017-12-23T17:23:21.527Z,9.00
2017-12-23T17:25:49.129Z,9.00
2017-12-23T17:28:17.642Z,9.00
2017-12-23T17:30:45.267Z,9.00
2017-12-23T17:33:12.858Z,9.00
2017-12-23T17:35:40.483Z,8.90
2017-12-23T17:38:08.072Z,9.00
2017-12-23T17:40:35.768Z,9.00
2017-12-23T17:43:03.931Z,9.00
2017-12-23T17:45:31.560Z,9.00
2017-12-23T17:47:59.169Z,9.00
2017-12-23T17:50:27.530Z,9.00
2017-12-23T17:52:55.172Z,8.90
2017-12-23T17:55:22.814Z,8.90
2017-12-23T17:57:50.447Z,8.80
2017-12-23T18:00:18.949Z,8.80
2017-12-23T18:02:46.584Z,8.80
2017-12-23T18:05:14.165Z,8.80
2017-12-23T18:07:41.753Z,8.80
2017-12-23T18:10:10.130Z,8.80
2017-12-23T18:12:37.722Z,8.80
2017-12-23T18:15:05.347Z,8.90
2017-12-23T18:17:34.452Z,8.90
2017-12-23T18:20:02.104Z,8.90
2017-12-23T18:22:29.699Z,8.80
2017-12-23T18:24:57.294Z,8.90
2017-12-23T18:27:24.911Z,8.90
2017-12-23T18:29:52.506Z,8.80
2017-12-23T18:32:20.129Z,9.00
2017-12-23T18:34:48.484Z,8.90
2017-12-23T18:37:16.104Z,8.90
2017-12-23T18:39:43.677Z,8.90
2017-12-23T18:42:11.266Z,8.90
2017-12-23T18:44:38.880Z,8.90
2017-12-23T18:47:07.218Z,8.90
2017-12-23T18:49:35.747Z,8.80
2017-12-23T18:52:04.262Z,8.90
2017-12-23T18:54:31.882Z,8.80
2017-12-23T18:56:59.473Z,8.80
2017-12-23T18:59:27.063Z,8.70
2017-12-23T19:01:54.690Z,8.80
2017-12-23T19:04:22.286Z,8.70
2017-12-23T19:06:49.903Z,8.70
2017-12-23T19:09:17.491Z,8.80
2017-12-23T19:11:45.103Z,8.90
2017-12-23T19:14:12.757Z,8.90
2017-12-23T19:16:52.295Z,8.90
2017-12-23T19:19:20.668Z,9.00
2017-12-23T19:21:48.251Z,9.00
2017-12-23T19:24:16.631Z,9.00
2017-12-23T19:26:44.213Z,9.00
2017-12-23T19:29:11.826Z,9.00
2017-12-23T19:31:39.431Z,9.00
2017-12-23T19:34:07.051Z,9.00
2017-12-23T19:36:35.366Z,9.00
2017-12-23T19:39:02.961Z,9.00
2017-12-23T19:41:30.582Z,9.00
2017-12-23T19:43:58.228Z,9.00
2017-12-23T19:46:25.842Z,9.00
2017-12-23T19:48:54.198Z,9.00
2017-12-23T19:51:21.815Z,9.00
2017-12-23T19:53:49.463Z,8.90
2017-12-23T19:56:17.055Z,9.00
2017-12-23T19:58:44.680Z,9.00
2017-12-23T20:01:12.254Z,8.90
2017-12-23T20:03:39.890Z,9.00
2017-12-23T20:06:07.490Z,9.00
2017-12-23T20:08:35.098Z,9.10
2017-12-23T20:11:03.448Z,9.00
2017-12-23T20:13:31.800Z,9.00
2017-12-23T20:15:59.416Z,9.00
2017-12-23T20:18:27.774Z,9.00
2017-12-23T20:20:55.392Z,9.00
2017-12-23T20:23:22.983Z,9.00
2017-12-23T20:25:50.580Z,9.00
2017-12-23T20:28:18.968Z,9.00
2017-12-23T20:30:46.555Z,9.00
2017-12-23T20:33:14.209Z,9.00
2017-12-23T20:35:41.832Z,9.00
2017-12-23T20:38:09.447Z,9.00
2017-12-23T20:40:37.043Z,9.00
2017-12-23T20:43:06.434Z,9.10
2017-12-23T20:45:35.446Z,9.10
2017-12-23T20:48:03.039Z,9.00
2017-12-23T20:50:30.667Z,9.20
2017-12-23T20:52:58.259Z,9.10
2017-12-23T20:55:25.896Z,9.20
2017-12-23T20:57:53.484Z,9.20
2017-12-23T21:00:21.067Z,9.20
2017-12-23T21:02:49.394Z,9.20
2017-12-23T21:05:19.051Z,9.20
2017-12-23T21:07:47.988Z,9.20
2017-12-23T21:10:17.508Z,9.20
2017-12-23T21:12:45.218Z,9.20
2017-12-23T21:15:12.838Z,9.20
2017-12-23T21:17:40.437Z,9.10
2017-12-23T21:20:08.051Z,9.20
2017-12-23T21:22:36.415Z,9.30
2017-12-23T21:25:05.227Z,9.30
2017-12-23T21:27:33.613Z,9.30
2017-12-23T21:30:01.991Z,9.30
2017-12-23T21:32:29.903Z,9.20
2017-12-23T21:34:57.856Z,9.20
2017-12-23T21:37:25.475Z,9.20
2017-12-23T21:39:53.837Z,9.30
2017-12-23T21:42:21.472Z,9.30
2017-12-23T21:44:49.064Z,9.30
2017-12-23T21:47:16.652Z,9.30
2017-12-23T21:49:44.283Z,9.30
2017-12-23T21:52:11.867Z,9.30
2017-12-23T21:54:39.493Z,9.20
2017-12-23T21:57:07.078Z,9.30
2017-12-23T21:59:35.464Z,9.30
2017-12-23T22:02:03.454Z,9.30
2017-12-23T22:04:31.040Z,9.30
2017-12-23T22:06:58.657Z,9.40
2017-12-23T22:09:27.015Z,9.30
2017-12-23T22:11:54.645Z,9.20
2017-12-23T22:14:23.001Z,9.30
2017-12-23T22:16:51.393Z,9.30
2017-12-23T22:19:18.984Z,9.30
2017-12-23T22:21:46.579Z,9.30
2017-12-23T22:24:14.190Z,9.40
2017-12-23T22:26:42.547Z,9.30
2017-12-23T22:29:10.159Z,9.30
2017-12-23T22:31:37.747Z,9.30
2017-12-23T22:34:05.394Z,9.30
2017-12-23T22:36:33.384Z,9.30
2017-12-23T22:39:00.973Z,9.30
2017-12-23T22:41:28.583Z,9.30
2017-12-23T22:43:56.184Z,9.30
2017-12-23T22:46:23.809Z,9.30
2017-12-23T22:48:51.400Z,9.40
2017-12-23T22:51:19.017Z,9.40
2017-12-23T22:53:46.636Z,9.40
2017-12-23T22:56:14.228Z,9.30
2017-12-23T22:58:41.842Z,9.30
2017-12-23T23:01:10.200Z,9.40
2017-12-23T23:03:37.818Z,9.40
2017-12-23T23:06:05.742Z,9.40
2017-12-23T23:08:34.098Z,9.40
2017-12-23T23:11:01.691Z,9.40
2017-12-23T23:13:30.634Z,9.30
2017-12-23T23:15:58.248Z,9.40
2017-12-23T23:18:25.859Z,9.30
2017-12-23T23:20:53.468Z,9.30
2017-12-23T23:23:21.075Z,9.40
2017-12-23T23:25:48.694Z,9.40
2017-12-23T23:28:16.296Z,9.50
2017-12-23T23:30:43.888Z,9.50
2017-12-23T23:33:12.262Z,9.50
2017-12-23T23:35:39.846Z,9.40
2017-12-23T23:38:07.471Z,9.40
2017-12-23T23:40:35.571Z,9.30
2017-12-23T23:43:03.933Z,9.40
2017-12-23T23:45:31.523Z,9.40
2017-12-23T23:48:05.979Z,9.40
2017-12-23T23:50:34.183Z,9.30
2017-12-23T23:53:01.762Z,9.30
2017-12-23T23:55:30.139Z,9.30
2017-12-23T23:57:57.723Z,9.30
